sensor_id;sensor_type;location;lat;lon;timestamp;P1;durP1;ratioP1;P2;durP2;ratioP2
80123;SDS011;69433;48.642;9.142;2023-08-24T00:01:27;7.07;;;5.57;;
80123;SDS011;69433;48.642;9.142;2023-08-24T00:03:52;8.68;;;6.97;;
80123;SDS011;69433;48.642;9.142;2023-08-24T00:06:18;8.98;;;6.28;;
80123;SDS011;69433;48.642;9.142;2023-08-24T00:08:43;7.25;;;6.55;;
80123;SDS011;69433;48.642;9.142;2023-08-24T00:11:09;7.35;;;6.38;;
80123;SDS011;69433;48.642;9.142;2023-08-24T00:13:36;7.10;;;5.95;;
80123;SDS011;69433;48.642;9.142;2023-08-24T00:16:02;8.60;;;6.30;;
80123;SDS011;69433;48.642;9.142;2023-08-24T00:18:27;10.60;;;6.88;;
80123;SDS011;69433;48.642;9.142;2023-08-24T00:20:52;7.20;;;6.50;;
80123;SDS011;69433;48.642;9.142;2023-08-24T00:23:18;8.00;;;5.80;;
80123;SDS011;69433;48.642;9.142;2023-08-24T00:25:43;7.15;;;6.00;;
80123;SDS011;69433;48.642;9.142;2023-08-24T00:28:12;7.45;;;6.28;;
80123;SDS011;69433;48.642;9.142;2023-08-24T00:30:37;6.95;;;6.25;;
80123;SDS011;69433;48.642;9.142;2023-08-24T00:33:03;6.18;;;5.57;;
80123;SDS011;69433;48.642;9.142;2023-08-24T00:35:29;7.28;;;6.53;;
80123;SDS011;69433;48.642;9.142;2023-08-24T00:37:55;8.00;;;5.85;;
80123;SDS011;69433;48.642;9.142;2023-08-24T00:40:21;7.68;;;6.15;;
80123;SDS011;69433;48.642;9.142;2023-08-24T00:42:46;8.13;;;6.25;;
80123;SDS011;69433;48.642;9.142;2023-08-24T00:45:13;8.40;;;5.93;;
80123;SDS011;69433;48.642;9.142;2023-08-24T00:47:39;6.88;;;5.90;;
80123;SDS011;69433;48.642;9.142;2023-08-24T00:50:07;7.45;;;5.82;;
80123;SDS011;69433;48.642;9.142;2023-08-24T00:52:33;7.93;;;6.20;;
80123;SDS011;69433;48.642;9.142;2023-08-24T00:55:00;7.43;;;6.18;;
80123;SDS011;69433;48.642;9.142;2023-08-24T00:57:29;9.98;;;6.25;;
80123;SDS011;69433;48.642;9.142;2023-08-24T00:59:55;7.20;;;5.63;;
80123;SDS011;69433;48.642;9.142;2023-08-24T01:02:21;8.57;;;6.93;;
80123;SDS011;69433;48.642;9.142;2023-08-24T01:04:47;7.60;;;6.10;;
80123;SDS011;69433;48.642;9.142;2023-08-24T01:07:13;8.80;;;6.22;;
80123;SDS011;69433;48.642;9.142;2023-08-24T01:09:39;7.40;;;6.18;;
80123;SDS011;69433;48.642;9.142;2023-08-24T01:14:50;8.38;;;6.05;;
80123;SDS011;69433;48.642;9.142;2023-08-24T01:17:27;7.75;;;6.18;;
80123;SDS011;69433;48.642;9.142;2023-08-24T01:19:54;7.15;;;6.13;;
80123;SDS011;69433;48.642;9.142;2023-08-24T01:22:23;6.80;;;5.80;;
80123;SDS011;69433;48.642;9.142;2023-08-24T01:25:05;7.57;;;6.78;;
80123;SDS011;69433;48.642;9.142;2023-08-24T01:27:36;7.55;;;6.13;;
80123;SDS011;69433;48.642;9.142;2023-08-24T01:30:04;9.73;;;6.25;;
80123;SDS011;69433;48.642;9.142;2023-08-24T01:32:33;7.10;;;5.85;;
80123;SDS011;69433;48.642;9.142;2023-08-24T01:35:02;7.80;;;6.10;;
80123;SDS011;69433;48.642;9.142;2023-08-24T01:37:30;8.52;;;6.15;;
80123;SDS011;69433;48.642;9.142;2023-08-24T01:40:06;6.55;;;5.85;;
80123;SDS011;69433;48.642;9.142;2023-08-24T01:42:42;11.73;;;6.20;;
80123;SDS011;69433;48.642;9.142;2023-08-24T01:47:41;6.72;;;6.07;;
80123;SDS011;69433;48.642;9.142;2023-08-24T01:50:09;6.78;;;6.03;;
80123;SDS011;69433;48.642;9.142;2023-08-24T01:52:35;7.72;;;6.18;;
80123;SDS011;69433;48.642;9.142;2023-08-24T01:55:00;10.10;;;6.30;;
80123;SDS011;69433;48.642;9.142;2023-08-24T01:57:26;7.63;;;6.07;;
80123;SDS011;69433;48.642;9.142;2023-08-24T01:59:51;7.50;;;6.40;;
80123;SDS011;69433;48.642;9.142;2023-08-24T02:02:17;6.50;;;5.90;;
80123;SDS011;69433;48.642;9.142;2023-08-24T02:04:42;7.13;;;5.70;;
80123;SDS011;69433;48.642;9.142;2023-08-24T02:07:07;11.50;;;6.15;;
80123;SDS011;69433;48.642;9.142;2023-08-24T02:09:33;9.68;;;6.35;;
80123;SDS011;69433;48.642;9.142;2023-08-24T02:11:58;8.88;;;6.65;;
80123;SDS011;69433;48.642;9.142;2023-08-24T02:14:24;6.20;;;5.32;;
80123;SDS011;69433;48.642;9.142;2023-08-24T02:16:49;9.52;;;5.65;;
80123;SDS011;69433;48.642;9.142;2023-08-24T02:19:14;7.72;;;5.95;;
80123;SDS011;69433;48.642;9.142;2023-08-24T02:21:40;6.95;;;6.10;;
80123;SDS011;69433;48.642;9.142;2023-08-24T02:24:05;7.20;;;6.50;;
80123;SDS011;69433;48.642;9.142;2023-08-24T02:26:31;9.25;;;5.70;;
80123;SDS011;69433;48.642;9.142;2023-08-24T02:28:57;7.95;;;5.25;;
80123;SDS011;69433;48.642;9.142;2023-08-24T02:31:22;11.10;;;6.05;;
80123;SDS011;69433;48.642;9.142;2023-08-24T02:33:48;8.27;;;5.95;;
80123;SDS011;69433;48.642;9.142;2023-08-24T02:36:14;8.75;;;6.63;;
80123;SDS011;69433;48.642;9.142;2023-08-24T02:38:39;8.23;;;6.68;;
80123;SDS011;69433;48.642;9.142;2023-08-24T02:41:05;7.03;;;6.13;;
80123;SDS011;69433;48.642;9.142;2023-08-24T02:43:32;7.97;;;6.60;;
80123;SDS011;69433;48.642;9.142;2023-08-24T02:46:06;7.57;;;6.00;;
80123;SDS011;69433;48.642;9.142;2023-08-24T02:48:32;7.55;;;6.07;;
80123;SDS011;69433;48.642;9.142;2023-08-24T02:50:58;7.03;;;5.65;;
80123;SDS011;69433;48.642;9.142;2023-08-24T02:53:25;8.73;;;6.03;;
80123;SDS011;69433;48.642;9.142;2023-08-24T02:55:51;7.13;;;6.38;;
80123;SDS011;69433;48.642;9.142;2023-08-24T02:58:16;10.35;;;6.03;;
80123;SDS011;69433;48.642;9.142;2023-08-24T03:00:41;9.63;;;5.75;;
80123;SDS011;69433;48.642;9.142;2023-08-24T03:03:06;8.70;;;6.03;;
80123;SDS011;69433;48.642;9.142;2023-08-24T03:05:32;7.00;;;5.88;;
80123;SDS011;69433;48.642;9.142;2023-08-24T03:07:58;9.18;;;5.93;;
80123;SDS011;69433;48.642;9.142;2023-08-24T03:10:23;6.68;;;6.07;;
80123;SDS011;69433;48.642;9.142;2023-08-24T03:12:49;6.50;;;5.55;;
80123;SDS011;69433;48.642;9.142;2023-08-24T03:15:15;9.25;;;6.50;;
80123;SDS011;69433;48.642;9.142;2023-08-24T03:17:40;7.15;;;6.00;;
80123;SDS011;69433;48.642;9.142;2023-08-24T03:20:06;6.85;;;6.03;;
80123;SDS011;69433;48.642;9.142;2023-08-24T03:22:32;7.20;;;6.20;;
80123;SDS011;69433;48.642;9.142;2023-08-24T03:24:57;6.60;;;5.75;;
80123;SDS011;69433;48.642;9.142;2023-08-24T03:27:23;7.82;;;6.78;;
80123;SDS011;69433;48.642;9.142;2023-08-24T03:29:48;7.78;;;5.95;;
80123;SDS011;69433;48.642;9.142;2023-08-24T03:32:13;8.00;;;6.15;;
80123;SDS011;69433;48.642;9.142;2023-08-24T03:34:39;7.20;;;6.13;;
80123;SDS011;69433;48.642;9.142;2023-08-24T03:37:05;7.38;;;6.50;;
80123;SDS011;69433;48.642;9.142;2023-08-24T03:39:30;6.70;;;6.05;;
80123;SDS011;69433;48.642;9.142;2023-08-24T03:41:55;8.52;;;5.78;;
80123;SDS011;69433;48.642;9.142;2023-08-24T03:44:21;7.28;;;5.53;;
80123;SDS011;69433;48.642;9.142;2023-08-24T03:46:46;6.85;;;5.32;;
80123;SDS011;69433;48.642;9.142;2023-08-24T03:49:12;7.97;;;6.35;;
80123;SDS011;69433;48.642;9.142;2023-08-24T03:51:37;8.88;;;5.82;;
80123;SDS011;69433;48.642;9.142;2023-08-24T03:54:02;8.35;;;5.50;;
80123;SDS011;69433;48.642;9.142;2023-08-24T03:56:34;5.75;;;4.82;;
80123;SDS011;69433;48.642;9.142;2023-08-24T03:58:59;9.40;;;6.10;;
80123;SDS011;69433;48.642;9.142;2023-08-24T04:01:24;6.85;;;5.78;;
80123;SDS011;69433;48.642;9.142;2023-08-24T04:03:56;7.68;;;5.38;;
80123;SDS011;69433;48.642;9.142;2023-08-24T04:06:22;8.05;;;5.90;;
80123;SDS011;69433;48.642;9.142;2023-08-24T04:08:48;6.15;;;5.55;;
80123;SDS011;69433;48.642;9.142;2023-08-24T04:11:13;7.15;;;5.65;;
80123;SDS011;69433;48.642;9.142;2023-08-24T04:13:39;11.32;;;6.57;;
80123;SDS011;69433;48.642;9.142;2023-08-24T04:16:05;7.95;;;5.93;;
80123;SDS011;69433;48.642;9.142;2023-08-24T04:18:30;6.40;;;5.57;;
80123;SDS011;69433;48.642;9.142;2023-08-24T04:20:57;8.52;;;6.65;;
80123;SDS011;69433;48.642;9.142;2023-08-24T04:23:23;7.22;;;6.05;;
80123;SDS011;69433;48.642;9.142;2023-08-24T04:25:50;8.73;;;6.53;;
80123;SDS011;69433;48.642;9.142;2023-08-24T04:28:16;11.23;;;6.60;;
80123;SDS011;69433;48.642;9.142;2023-08-24T04:30:48;6.40;;;5.20;;
80123;SDS011;69433;48.642;9.142;2023-08-24T04:33:17;9.88;;;6.70;;
80123;SDS011;69433;48.642;9.142;2023-08-24T04:35:44;7.43;;;5.50;;
80123;SDS011;69433;48.642;9.142;2023-08-24T04:38:11;9.60;;;6.68;;
80123;SDS011;69433;48.642;9.142;2023-08-24T04:40:51;7.55;;;6.15;;
80123;SDS011;69433;48.642;9.142;2023-08-24T04:43:18;7.28;;;5.50;;
80123;SDS011;69433;48.642;9.142;2023-08-24T04:45:48;6.70;;;6.10;;
80123;SDS011;69433;48.642;9.142;2023-08-24T04:48:14;9.98;;;5.88;;
80123;SDS011;69433;48.642;9.142;2023-08-24T04:50:41;6.68;;;5.90;;
80123;SDS011;69433;48.642;9.142;2023-08-24T04:53:14;6.72;;;5.90;;
80123;SDS011;69433;48.642;9.142;2023-08-24T04:55:40;6.32;;;5.70;;
80123;SDS011;69433;48.642;9.142;2023-08-24T04:58:09;6.32;;;5.68;;
80123;SDS011;69433;48.642;9.142;2023-08-24T05:00:36;9.13;;;5.82;;
80123;SDS011;69433;48.642;9.142;2023-08-24T05:03:03;7.45;;;5.43;;
80123;SDS011;69433;48.642;9.142;2023-08-24T05:05:29;11.88;;;6.45;;
80123;SDS011;69433;48.642;9.142;2023-08-24T05:07:56;7.80;;;6.95;;
80123;SDS011;69433;48.642;9.142;2023-08-24T05:10:22;8.20;;;6.20;;
80123;SDS011;69433;48.642;9.142;2023-08-24T05:12:47;7.35;;;5.68;;
80123;SDS011;69433;48.642;9.142;2023-08-24T05:15:12;6.93;;;6.05;;
80123;SDS011;69433;48.642;9.142;2023-08-24T05:17:38;8.93;;;5.80;;
80123;SDS011;69433;48.642;9.142;2023-08-24T05:20:04;11.48;;;6.43;;
80123;SDS011;69433;48.642;9.142;2023-08-24T05:22:32;10.13;;;7.07;;
80123;SDS011;69433;48.642;9.142;2023-08-24T05:24:57;7.00;;;6.07;;
80123;SDS011;69433;48.642;9.142;2023-08-24T05:27:22;8.10;;;5.75;;
80123;SDS011;69433;48.642;9.142;2023-08-24T05:29:48;7.57;;;6.30;;
80123;SDS011;69433;48.642;9.142;2023-08-24T05:32:13;7.80;;;6.55;;
80123;SDS011;69433;48.642;9.142;2023-08-24T05:34:42;8.23;;;6.15;;
80123;SDS011;69433;48.642;9.142;2023-08-24T05:37:07;7.32;;;6.55;;
80123;SDS011;69433;48.642;9.142;2023-08-24T05:39:32;10.10;;;6.70;;
80123;SDS011;69433;48.642;9.142;2023-08-24T05:41:58;8.23;;;6.43;;
80123;SDS011;69433;48.642;9.142;2023-08-24T05:44:23;6.72;;;6.00;;
80123;SDS011;69433;48.642;9.142;2023-08-24T05:46:51;8.52;;;6.30;;
80123;SDS011;69433;48.642;9.142;2023-08-24T05:49:16;8.10;;;6.00;;
80123;SDS011;69433;48.642;9.142;2023-08-24T05:51:41;8.27;;;6.43;;
80123;SDS011;69433;48.642;9.142;2023-08-24T05:54:07;8.63;;;6.30;;
80123;SDS011;69433;48.642;9.142;2023-08-24T05:56:32;7.85;;;6.63;;
80123;SDS011;69433;48.642;9.142;2023-08-24T05:58:58;8.77;;;6.20;;
80123;SDS011;69433;48.642;9.142;2023-08-24T06:01:24;8.48;;;6.32;;
80123;SDS011;69433;48.642;9.142;2023-08-24T06:03:52;7.30;;;6.57;;
80123;SDS011;69433;48.642;9.142;2023-08-24T06:06:17;12.65;;;6.60;;
80123;SDS011;69433;48.642;9.142;2023-08-24T06:08:43;10.25;;;6.43;;
80123;SDS011;69433;48.642;9.142;2023-08-24T06:11:08;10.05;;;6.03;;
80123;SDS011;69433;48.642;9.142;2023-08-24T06:13:33;7.97;;;5.90;;
80123;SDS011;69433;48.642;9.142;2023-08-24T06:15:59;9.18;;;6.13;;
80123;SDS011;69433;48.642;9.142;2023-08-24T06:18:25;7.68;;;5.75;;
80123;SDS011;69433;48.642;9.142;2023-08-24T06:20:50;8.35;;;7.10;;
80123;SDS011;69433;48.642;9.142;2023-08-24T06:23:19;8.18;;;6.30;;
80123;SDS011;69433;48.642;9.142;2023-08-24T06:25:45;8.90;;;6.93;;
80123;SDS011;69433;48.642;9.142;2023-08-24T06:28:11;7.05;;;6.03;;
80123;SDS011;69433;48.642;9.142;2023-08-24T06:30:40;7.40;;;5.72;;
80123;SDS011;69433;48.642;9.142;2023-08-24T06:33:09;7.60;;;5.88;;
80123;SDS011;69433;48.642;9.142;2023-08-24T06:35:36;8.43;;;6.28;;
80123;SDS011;69433;48.642;9.142;2023-08-24T06:38:04;8.35;;;6.13;;
80123;SDS011;69433;48.642;9.142;2023-08-24T06:40:30;6.57;;;5.88;;
80123;SDS011;69433;48.642;9.142;2023-08-24T06:42:55;7.03;;;6.32;;
80123;SDS011;69433;48.642;9.142;2023-08-24T06:45:21;8.13;;;6.10;;
80123;SDS011;69433;48.642;9.142;2023-08-24T06:47:49;7.55;;;6.03;;
80123;SDS011;69433;48.642;9.142;2023-08-24T06:50:14;7.55;;;6.32;;
80123;SDS011;69433;48.642;9.142;2023-08-24T06:52:43;7.68;;;6.35;;
80123;SDS011;69433;48.642;9.142;2023-08-24T06:55:09;7.90;;;6.57;;
80123;SDS011;69433;48.642;9.142;2023-08-24T06:57:35;7.53;;;6.30;;
80123;SDS011;69433;48.642;9.142;2023-08-24T07:00:01;7.25;;;6.28;;
80123;SDS011;69433;48.642;9.142;2023-08-24T07:02:30;9.38;;;6.15;;
80123;SDS011;69433;48.642;9.142;2023-08-24T07:04:55;7.25;;;6.55;;
80123;SDS011;69433;48.642;9.142;2023-08-24T07:07:22;8.55;;;6.82;;
80123;SDS011;69433;48.642;9.142;2023-08-24T07:09:47;9.65;;;7.28;;
80123;SDS011;69433;48.642;9.142;2023-08-24T07:12:13;9.45;;;6.70;;
80123;SDS011;69433;48.642;9.142;2023-08-24T07:14:38;8.65;;;6.40;;
80123;SDS011;69433;48.642;9.142;2023-08-24T07:17:03;10.27;;;6.32;;
80123;SDS011;69433;48.642;9.142;2023-08-24T07:19:29;7.80;;;6.57;;
80123;SDS011;69433;48.642;9.142;2023-08-24T07:21:54;8.77;;;6.30;;
80123;SDS011;69433;48.642;9.142;2023-08-24T07:24:19;7.00;;;5.78;;
80123;SDS011;69433;48.642;9.142;2023-08-24T07:26:45;10.35;;;6.60;;
80123;SDS011;69433;48.642;9.142;2023-08-24T07:29:11;8.30;;;6.47;;
80123;SDS011;69433;48.642;9.142;2023-08-24T07:31:37;8.43;;;6.90;;
80123;SDS011;69433;48.642;9.142;2023-08-24T07:34:02;7.43;;;6.53;;
80123;SDS011;69433;48.642;9.142;2023-08-24T07:36:28;8.38;;;7.00;;
80123;SDS011;69433;48.642;9.142;2023-08-24T07:38:55;8.15;;;6.03;;
80123;SDS011;69433;48.642;9.142;2023-08-24T07:41:20;7.65;;;5.75;;
80123;SDS011;69433;48.642;9.142;2023-08-24T07:43:45;7.25;;;6.00;;
80123;SDS011;69433;48.642;9.142;2023-08-24T07:46:11;7.10;;;6.05;;
80123;SDS011;69433;48.642;9.142;2023-08-24T07:48:36;8.63;;;6.20;;
80123;SDS011;69433;48.642;9.142;2023-08-24T07:51:01;8.45;;;6.47;;
80123;SDS011;69433;48.642;9.142;2023-08-24T07:53:27;8.77;;;6.30;;
80123;SDS011;69433;48.642;9.142;2023-08-24T07:55:53;10.20;;;5.88;;
80123;SDS011;69433;48.642;9.142;2023-08-24T07:58:19;10.50;;;6.90;;
80123;SDS011;69433;48.642;9.142;2023-08-24T08:00:49;8.52;;;5.85;;
80123;SDS011;69433;48.642;9.142;2023-08-24T08:03:15;7.88;;;5.72;;
80123;SDS011;69433;48.642;9.142;2023-08-24T08:05:40;7.72;;;6.28;;
80123;SDS011;69433;48.642;9.142;2023-08-24T08:08:05;7.88;;;6.07;;
80123;SDS011;69433;48.642;9.142;2023-08-24T08:10:31;7.47;;;6.22;;
80123;SDS011;69433;48.642;9.142;2023-08-24T08:12:56;8.82;;;6.57;;
80123;SDS011;69433;48.642;9.142;2023-08-24T08:15:21;8.63;;;5.70;;
80123;SDS011;69433;48.642;9.142;2023-08-24T08:17:47;7.03;;;5.68;;
80123;SDS011;69433;48.642;9.142;2023-08-24T08:20:13;7.22;;;5.88;;
80123;SDS011;69433;48.642;9.142;2023-08-24T08:22:39;8.30;;;6.90;;
80123;SDS011;69433;48.642;9.142;2023-08-24T08:25:05;6.38;;;5.70;;
80123;SDS011;69433;48.642;9.142;2023-08-24T08:27:33;8.13;;;6.70;;
80123;SDS011;69433;48.642;9.142;2023-08-24T08:29:58;8.18;;;6.22;;
80123;SDS011;69433;48.642;9.142;2023-08-24T08:32:24;7.30;;;5.88;;
80123;SDS011;69433;48.642;9.142;2023-08-24T08:34:52;7.22;;;5.80;;
80123;SDS011;69433;48.642;9.142;2023-08-24T08:37:25;7.43;;;6.60;;
80123;SDS011;69433;48.642;9.142;2023-08-24T08:39:50;6.30;;;5.70;;
80123;SDS011;69433;48.642;9.142;2023-08-24T08:42:15;8.02;;;6.40;;
80123;SDS011;69433;48.642;9.142;2023-08-24T08:44:41;6.75;;;5.70;;
80123;SDS011;69433;48.642;9.142;2023-08-24T08:47:10;7.50;;;6.45;;
80123;SDS011;69433;48.642;9.142;2023-08-24T08:49:37;9.43;;;5.93;;
80123;SDS011;69433;48.642;9.142;2023-08-24T08:52:03;6.63;;;5.30;;
80123;SDS011;69433;48.642;9.142;2023-08-24T08:54:30;7.80;;;5.85;;
80123;SDS011;69433;48.642;9.142;2023-08-24T08:56:56;7.18;;;5.60;;
80123;SDS011;69433;48.642;9.142;2023-08-24T08:59:22;6.32;;;5.50;;
80123;SDS011;69433;48.642;9.142;2023-08-24T09:01:48;7.00;;;6.13;;
80123;SDS011;69433;48.642;9.142;2023-08-24T09:04:15;6.68;;;5.47;;
80123;SDS011;69433;48.642;9.142;2023-08-24T09:06:41;6.88;;;5.70;;
80123;SDS011;69433;48.642;9.142;2023-08-24T09:09:07;6.07;;;5.57;;
80123;SDS011;69433;48.642;9.142;2023-08-24T09:11:33;6.53;;;5.57;;
80123;SDS011;69433;48.642;9.142;2023-08-24T09:13:58;9.05;;;5.32;;
80123;SDS011;69433;48.642;9.142;2023-08-24T09:16:24;9.75;;;6.15;;
80123;SDS011;69433;48.642;9.142;2023-08-24T09:21:19;5.80;;;5.20;;
80123;SDS011;69433;48.642;9.142;2023-08-24T09:23:45;6.80;;;4.95;;
80123;SDS011;69433;48.642;9.142;2023-08-24T09:26:26;6.05;;;5.22;;
80123;SDS011;69433;48.642;9.142;2023-08-24T09:28:56;6.82;;;5.53;;
80123;SDS011;69433;48.642;9.142;2023-08-24T09:31:22;7.63;;;5.53;;
80123;SDS011;69433;48.642;9.142;2023-08-24T09:33:49;8.45;;;5.28;;
80123;SDS011;69433;48.642;9.142;2023-08-24T09:36:15;9.10;;;5.70;;
80123;SDS011;69433;48.642;9.142;2023-08-24T09:39:01;6.40;;;5.60;;
80123;SDS011;69433;48.642;9.142;2023-08-24T09:41:48;6.72;;;5.40;;
80123;SDS011;69433;48.642;9.142;2023-08-24T09:44:14;7.07;;;5.32;;
80123;SDS011;69433;48.642;9.142;2023-08-24T09:46:40;6.95;;;6.10;;
80123;SDS011;69433;48.642;9.142;2023-08-24T09:49:09;8.75;;;5.78;;
80123;SDS011;69433;48.642;9.142;2023-08-24T09:51:36;7.53;;;6.18;;
80123;SDS011;69433;48.642;9.142;2023-08-24T09:54:13;7.43;;;5.85;;
80123;SDS011;69433;48.642;9.142;2023-08-24T09:56:41;7.22;;;5.97;;
80123;SDS011;69433;48.642;9.142;2023-08-24T09:59:10;6.57;;;5.75;;
80123;SDS011;69433;48.642;9.142;2023-08-24T10:01:43;6.10;;;5.25;;
80123;SDS011;69433;48.642;9.142;2023-08-24T10:04:09;6.90;;;5.18;;
80123;SDS011;69433;48.642;9.142;2023-08-24T10:06:36;7.57;;;5.95;;
80123;SDS011;69433;48.642;9.142;2023-08-24T10:09:07;7.90;;;5.10;;
80123;SDS011;69433;48.642;9.142;2023-08-24T10:11:36;6.88;;;5.32;;
80123;SDS011;69433;48.642;9.142;2023-08-24T10:14:09;6.63;;;5.00;;
80123;SDS011;69433;48.642;9.142;2023-08-24T10:16:41;10.20;;;5.03;;
80123;SDS011;69433;48.642;9.142;2023-08-24T10:19:07;7.65;;;5.07;;
80123;SDS011;69433;48.642;9.142;2023-08-24T10:21:33;7.10;;;5.10;;
80123;SDS011;69433;48.642;9.142;2023-08-24T10:24:01;9.55;;;5.07;;
80123;SDS011;69433;48.642;9.142;2023-08-24T10:26:30;8.43;;;5.40;;
80123;SDS011;69433;48.642;9.142;2023-08-24T10:29:01;6.32;;;4.88;;
80123;SDS011;69433;48.642;9.142;2023-08-24T10:31:28;6.45;;;5.72;;
80123;SDS011;69433;48.642;9.142;2023-08-24T10:33:54;7.65;;;5.97;;
80123;SDS011;69433;48.642;9.142;2023-08-24T10:36:20;5.93;;;5.20;;
80123;SDS011;69433;48.642;9.142;2023-08-24T10:38:47;7.63;;;5.53;;
80123;SDS011;69433;48.642;9.142;2023-08-24T10:41:13;10.52;;;5.30;;
80123;SDS011;69433;48.642;9.142;2023-08-24T10:43:39;6.63;;;5.93;;
80123;SDS011;69433;48.642;9.142;2023-08-24T10:46:11;6.43;;;5.32;;
80123;SDS011;69433;48.642;9.142;2023-08-24T10:53:45;7.32;;;5.10;;
80123;SDS011;69433;48.642;9.142;2023-08-24T10:56:18;9.18;;;5.93;;
80123;SDS011;69433;48.642;9.142;2023-08-24T10:58:44;6.47;;;5.40;;
80123;SDS011;69433;48.642;9.142;2023-08-24T11:01:19;6.25;;;5.10;;
80123;SDS011;69433;48.642;9.142;2023-08-24T11:03:50;6.68;;;5.10;;
80123;SDS011;69433;48.642;9.142;2023-08-24T11:06:25;8.20;;;5.03;;
80123;SDS011;69433;48.642;9.142;2023-08-24T11:09:04;5.80;;;5.22;;
80123;SDS011;69433;48.642;9.142;2023-08-24T11:11:40;7.80;;;5.38;;
80123;SDS011;69433;48.642;9.142;2023-08-24T11:16:47;6.75;;;4.88;;
80123;SDS011;69433;48.642;9.142;2023-08-24T11:19:13;6.00;;;5.00;;
80123;SDS011;69433;48.642;9.142;2023-08-24T11:21:39;7.88;;;5.10;;
80123;SDS011;69433;48.642;9.142;2023-08-24T11:24:06;6.25;;;4.80;;
80123;SDS011;69433;48.642;9.142;2023-08-24T11:26:33;7.40;;;4.97;;
80123;SDS011;69433;48.642;9.142;2023-08-24T11:28:58;7.70;;;5.60;;
80123;SDS011;69433;48.642;9.142;2023-08-24T11:31:24;8.32;;;4.97;;
80123;SDS011;69433;48.642;9.142;2023-08-24T11:33:53;6.22;;;5.20;;
80123;SDS011;69433;48.642;9.142;2023-08-24T11:36:22;5.93;;;4.40;;
80123;SDS011;69433;48.642;9.142;2023-08-24T11:38:51;5.03;;;4.53;;
80123;SDS011;69433;48.642;9.142;2023-08-24T11:41:18;5.88;;;4.43;;
80123;SDS011;69433;48.642;9.142;2023-08-24T11:43:47;6.40;;;4.95;;
80123;SDS011;69433;48.642;9.142;2023-08-24T11:46:15;6.97;;;4.72;;
80123;SDS011;69433;48.642;9.142;2023-08-24T11:48:41;6.03;;;4.72;;
80123;SDS011;69433;48.642;9.142;2023-08-24T11:51:10;7.00;;;5.25;;
80123;SDS011;69433;48.642;9.142;2023-08-24T11:53:38;8.10;;;4.78;;
80123;SDS011;69433;48.642;9.142;2023-08-24T11:56:05;6.78;;;4.43;;
80123;SDS011;69433;48.642;9.142;2023-08-24T11:58:30;5.60;;;4.47;;
80123;SDS011;69433;48.642;9.142;2023-08-24T12:00:56;6.63;;;4.90;;
80123;SDS011;69433;48.642;9.142;2023-08-24T12:03:21;5.82;;;5.22;;
80123;SDS011;69433;48.642;9.142;2023-08-24T12:05:47;5.82;;;4.43;;
80123;SDS011;69433;48.642;9.142;2023-08-24T12:08:12;5.18;;;4.47;;
80123;SDS011;69433;48.642;9.142;2023-08-24T12:10:42;7.13;;;5.22;;
80123;SDS011;69433;48.642;9.142;2023-08-24T12:13:07;5.78;;;5.07;;
80123;SDS011;69433;48.642;9.142;2023-08-24T12:15:34;5.65;;;4.85;;
80123;SDS011;69433;48.642;9.142;2023-08-24T12:18:10;5.93;;;4.47;;
80123;SDS011;69433;48.642;9.142;2023-08-24T12:20:37;5.40;;;4.68;;
80123;SDS011;69433;48.642;9.142;2023-08-24T12:23:03;4.93;;;4.43;;
80123;SDS011;69433;48.642;9.142;2023-08-24T12:25:28;5.45;;;4.60;;
80123;SDS011;69433;48.642;9.142;2023-08-24T12:30:43;4.75;;;4.13;;
80123;SDS011;69433;48.642;9.142;2023-08-24T12:33:09;4.85;;;4.35;;
80123;SDS011;69433;48.642;9.142;2023-08-24T12:35:45;5.72;;;4.47;;
80123;SDS011;69433;48.642;9.142;2023-08-24T12:38:10;5.07;;;4.32;;
80123;SDS011;69433;48.642;9.142;2023-08-24T12:40:36;5.45;;;4.25;;
80123;SDS011;69433;48.642;9.142;2023-08-24T12:43:01;4.45;;;3.80;;
80123;SDS011;69433;48.642;9.142;2023-08-24T12:45:26;6.13;;;4.35;;
80123;SDS011;69433;48.642;9.142;2023-08-24T12:47:52;5.05;;;4.22;;
80123;SDS011;69433;48.642;9.142;2023-08-24T12:50:17;4.60;;;4.20;;
80123;SDS011;69433;48.642;9.142;2023-08-24T12:52:42;4.85;;;4.25;;
80123;SDS011;69433;48.642;9.142;2023-08-24T12:55:07;5.20;;;4.50;;
80123;SDS011;69433;48.642;9.142;2023-08-24T12:57:33;5.75;;;4.55;;
80123;SDS011;69433;48.642;9.142;2023-08-24T12:59:59;5.05;;;4.28;;
80123;SDS011;69433;48.642;9.142;2023-08-24T13:02:24;4.90;;;4.40;;
80123;SDS011;69433;48.642;9.142;2023-08-24T13:04:49;5.25;;;4.35;;
80123;SDS011;69433;48.642;9.142;2023-08-24T13:07:15;5.13;;;4.45;;
80123;SDS011;69433;48.642;9.142;2023-08-24T13:09:40;5.00;;;4.43;;
80123;SDS011;69433;48.642;9.142;2023-08-24T13:12:06;5.32;;;4.32;;
80123;SDS011;69433;48.642;9.142;2023-08-24T13:14:31;5.47;;;4.38;;
80123;SDS011;69433;48.642;9.142;2023-08-24T13:16:56;5.00;;;4.47;;
80123;SDS011;69433;48.642;9.142;2023-08-24T13:19:22;4.68;;;4.13;;
80123;SDS011;69433;48.642;9.142;2023-08-24T13:21:47;4.55;;;4.15;;
80123;SDS011;69433;48.642;9.142;2023-08-24T13:24:12;4.63;;;4.15;;
80123;SDS011;69433;48.642;9.142;2023-08-24T13:26:38;5.13;;;4.40;;
80123;SDS011;69433;48.642;9.142;2023-08-24T13:29:03;4.72;;;3.85;;
80123;SDS011;69433;48.642;9.142;2023-08-24T13:31:29;5.20;;;4.10;;
80123;SDS011;69433;48.642;9.142;2023-08-24T13:33:55;4.85;;;4.35;;
80123;SDS011;69433;48.642;9.142;2023-08-24T13:36:20;5.68;;;4.50;;
80123;SDS011;69433;48.642;9.142;2023-08-24T13:38:45;4.70;;;3.78;;
80123;SDS011;69433;48.642;9.142;2023-08-24T13:41:11;4.93;;;4.10;;
80123;SDS011;69433;48.642;9.142;2023-08-24T13:43:36;4.70;;;4.20;;
80123;SDS011;69433;48.642;9.142;2023-08-24T13:46:01;6.82;;;4.20;;
80123;SDS011;69433;48.642;9.142;2023-08-24T13:48:26;5.72;;;4.80;;
80123;SDS011;69433;48.642;9.142;2023-08-24T13:50:53;4.50;;;4.10;;
80123;SDS011;69433;48.642;9.142;2023-08-24T13:53:19;5.57;;;4.00;;
80123;SDS011;69433;48.642;9.142;2023-08-24T13:55:45;5.40;;;4.40;;
80123;SDS011;69433;48.642;9.142;2023-08-24T13:58:10;5.13;;;4.20;;
80123;SDS011;69433;48.642;9.142;2023-08-24T14:00:36;4.90;;;4.40;;
80123;SDS011;69433;48.642;9.142;2023-08-24T14:03:04;5.65;;;4.53;;
80123;SDS011;69433;48.642;9.142;2023-08-24T14:05:29;4.68;;;4.10;;
80123;SDS011;69433;48.642;9.142;2023-08-24T14:07:54;5.78;;;4.25;;
80123;SDS011;69433;48.642;9.142;2023-08-24T14:10:20;5.80;;;3.92;;
80123;SDS011;69433;48.642;9.142;2023-08-24T14:12:51;5.30;;;4.22;;
80123;SDS011;69433;48.642;9.142;2023-08-24T14:15:16;4.80;;;3.72;;
80123;SDS011;69433;48.642;9.142;2023-08-24T14:17:42;7.10;;;4.50;;
80123;SDS011;69433;48.642;9.142;2023-08-24T14:20:07;5.50;;;4.15;;
80123;SDS011;69433;48.642;9.142;2023-08-24T14:22:34;9.23;;;4.30;;
80123;SDS011;69433;48.642;9.142;2023-08-24T14:24:59;4.90;;;3.80;;
80123;SDS011;69433;48.642;9.142;2023-08-24T14:27:24;7.60;;;4.50;;
80123;SDS011;69433;48.642;9.142;2023-08-24T14:29:50;5.45;;;3.60;;
80123;SDS011;69433;48.642;9.142;2023-08-24T14:32:15;6.43;;;4.07;;
80123;SDS011;69433;48.642;9.142;2023-08-24T14:34:40;8.48;;;4.28;;
80123;SDS011;69433;48.642;9.142;2023-08-24T14:37:06;5.80;;;4.18;;
80123;SDS011;69433;48.642;9.142;2023-08-24T14:39:31;5.20;;;3.95;;
80123;SDS011;69433;48.642;9.142;2023-08-24T14:41:57;5.55;;;3.78;;
80123;SDS011;69433;48.642;9.142;2023-08-24T14:44:24;6.65;;;3.83;;
80123;SDS011;69433;48.642;9.142;2023-08-24T14:46:50;4.63;;;3.60;;
80123;SDS011;69433;48.642;9.142;2023-08-24T14:49:15;4.45;;;3.85;;
80123;SDS011;69433;48.642;9.142;2023-08-24T14:51:44;6.32;;;4.13;;
80123;SDS011;69433;48.642;9.142;2023-08-24T14:54:09;6.85;;;4.30;;
80123;SDS011;69433;48.642;9.142;2023-08-24T14:56:38;6.47;;;4.57;;
80123;SDS011;69433;48.642;9.142;2023-08-24T14:59:03;8.13;;;4.55;;
80123;SDS011;69433;48.642;9.142;2023-08-24T15:01:28;7.03;;;4.55;;
80123;SDS011;69433;48.642;9.142;2023-08-24T15:03:54;8.57;;;4.85;;